SBCP/CAW METAR and TAF weather

Enter ICAO airport designator
Station Type Date Time Source
SBCP METAR 2019/10/14 21:00 UTC NOAA

SBCP 142100Z 07016KT CAVOK 25/20 Q1013


Station Type Date Time Source
SBCP Decoded METAR 2019/10/14 21:00 UTC NOAA

Campos, Brazil (SBCP) 21-45S 041-20W 11M
Oct 14, 2019 - 05:00 PM EDT / 2019.10.14 2100 UTC
Wind: from the ENE (070 degrees) at 18 MPH (16 KT):0
Visibility: greater than 7 mile(s):0
Temperature: 77 F (25 C)
Dew Point: 68 F (20 C)
Relative Humidity: 73%
Pressure (altimeter): 29.91 in. Hg (1013 hPa)
ob: SBCP 142100Z 07016KT CAVOK 25/20 Q1013
cycle: 21

Station Type Date Time Source
SBCP TAF 2019/10/15 12:42 UTC NOAA

TAF SBCP 150900Z 1512/1524 04010KT CAVOK TX30/1517Z TN25/1521Z
BECMG 1514/1516 07018KT
RMK PGY

Example: see airport list